Time;durP1;ratioP1;P1;durP2;ratioP2;P2;SDS_P1;SDS_P2;PMS_P1;PMS_P2;Temp;Humidity;BMP_temperature;BMP_pressure;BME280_temperature;BME280_humidity;BME280_pressure;Samples;Min_cycle;Max_cycle;Signal;HPM_P1;HPM_P2
2021/07/15 00:00:26;;;;;;;12.23;5.78;;;;;;;15.68;98.83;99752.47;5055154;28;20049;-68
2021/07/15 00:02:54;;;;;;;15.23;5.75;;;;;;;15.66;98.53;99758.47;5057382;28;20405;-68
2021/07/15 00:05:24;;;;;;;9.68;5.38;;;;;;;15.62;97.32;99755.59;5058732;28;20049;-68
2021/07/15 00:07:51;;;;;;;10.88;5.10;;;;;;;15.55;98.61;99761.03;5055837;28;20049;-68
2021/07/15 00:10:23;;;;;;;12.18;5.30;;;;;;;15.50;98.55;99761.31;5062581;28;20052;-68
2021/07/15 00:12:52;;;;;;;9.88;5.22;;;;;;;15.55;97.30;99760.22;5066679;28;20511;-68
2021/07/15 00:15:24;;;;;;;12.48;5.40;;;;;;;15.50;97.70;99766.94;5067139;28;20056;-68
2021/07/15 00:17:53;;;;;;;12.45;5.05;;;;;;;15.50;98.05;99768.94;5055621;28;20053;-68
2021/07/15 00:20:21;;;;;;;13.47;5.70;;;;;;;15.47;98.56;99770.44;5066467;28;20500;-68
2021/07/15 00:22:48;;;;;;;17.15;6.15;;;;;;;15.45;98.61;99784.03;5069278;28;20056;-68
2021/07/15 00:25:18;;;;;;;15.95;7.00;;;;;;;15.45;98.24;99783.22;5053305;28;20045;-68
2021/07/15 00:27:47;;;;;;;10.68;5.80;;;;;;;15.41;98.52;99786.78;5054787;28;20053;-68
2021/07/15 00:30:15;;;;;;;9.75;5.15;;;;;;;15.45;97.80;99781.22;5065795;28;20045;-68
2021/07/15 00:32:44;;;;;;;11.10;5.43;;;;;;;15.47;97.34;99783.69;5071406;28;20055;-68
2021/07/15 00:35:12;;;;;;;14.48;5.25;;;;;;;15.49;98.15;99784.13;5058005;28;20053;-68
2021/07/15 00:37:41;;;;;;;9.70;4.80;;;;;;;15.54;97.23;99781.88;5054561;28;20056;-68
2021/07/15 00:40:11;;;;;;;9.15;4.72;;;;;;;15.53;97.68;99774.59;5054097;28;20053;-68
2021/07/15 00:42:38;;;;;;;14.77;5.53;;;;;;;15.53;98.61;99769.00;5054886;28;20060;-68
2021/07/15 00:45:08;;;;;;;12.43;5.53;;;;;;;15.57;98.85;99775.50;5054263;28;20049;-68
2021/07/15 00:47:35;;;;;;;13.27;6.05;;;;;;;15.59;99.50;99758.31;5057735;28;20053;-68
2021/07/15 00:50:07;;;;;;;10.02;4.75;;;;;;;15.68;98.71;99760.91;5053865;28;20416;-68
2021/07/15 00:52:35;;;;;;;10.20;4.88;;;;;;;15.72;98.42;99748.59;5068134;28;20063;-68
2021/07/15 00:55:05;;;;;;;8.30;4.78;;;;;;;15.79;97.99;99748.78;5069770;28;20413;-68
2021/07/15 00:57:33;;;;;;;7.97;4.75;;;;;;;15.83;97.74;99744.06;5073046;28;20052;-68
2021/07/15 01:00:01;;;;;;;10.75;5.38;;;;;;;15.89;98.05;99746.56;5053749;28;20057;-68
2021/07/15 01:02:28;;;;;;;9.85;5.70;;;;;;;15.94;97.89;99749.09;5053922;28;20060;-68
2021/07/15 01:04:56;;;;;;;15.00;6.47;;;;;;;15.97;97.83;99748.34;5063768;28;20059;-68
2021/07/15 01:07:25;;;;;;;11.48;5.75;;;;;;;16.03;97.50;99744.88;5074461;28;20062;-68
2021/07/15 01:09:52;;;;;;;10.97;5.13;;;;;;;16.09;97.28;99741.78;5057929;28;20049;-68
2021/07/15 01:12:34;;;;;;;9.07;5.03;;;;;;;16.14;97.38;99744.28;5054176;28;20106;-68
2021/07/15 01:15:08;;;;;;;8.93;4.70;;;;;;;16.14;97.09;99753.50;5053624;28;20417;-68
2021/07/15 01:17:48;;;;;;;8.13;4.47;;;;;;;16.12;97.93;99761.50;5054203;28;20049;-68
2021/07/15 01:20:57;;;;;;;10.23;6.18;;;;;;;16.14;100.00;99778.81;5067089;28;20067;-68
2021/07/15 01:23:52;;;;;;;10.38;5.63;;;;;;;16.26;100.00;99771.44;5039179;28;20048;-68
2021/07/15 01:26:44;;;;;;;11.75;5.80;;;;;;;16.48;98.70;99776.28;5053086;28;20053;-68
2021/07/15 01:29:19;;;;;;;10.50;6.20;;;;;;;16.58;97.58;99775.66;5054028;28;20060;-68
2021/07/15 01:31:54;;;;;;;10.40;5.38;;;;;;;16.67;96.81;99774.63;5061237;28;20052;-68
2021/07/15 01:34:23;;;;;;;9.82;5.85;;;;;;;16.71;96.41;99778.31;5058612;28;20525;-68
2021/07/15 01:36:55;;;;;;;8.68;4.88;;;;;;;16.75;96.15;99785.63;5052510;28;20048;-68
2021/07/15 01:39:25;;;;;;;9.20;5.47;;;;;;;16.78;95.25;99786.91;5053804;28;20056;-68
2021/07/15 01:41:56;;;;;;;9.23;5.18;;;;;;;16.80;94.31;99790.16;5053293;28;20469;-68
2021/07/15 01:44:25;;;;;;;10.45;5.20;;;;;;;16.83;94.98;99789.44;5053226;28;20056;-68
2021/07/15 01:46:55;;;;;;;8.30;4.80;;;;;;;16.81;94.63;99786.16;5052816;28;20064;-68
2021/07/15 01:49:24;;;;;;;11.45;5.45;;;;;;;16.81;94.82;99775.72;5053653;28;20057;-68
2021/07/15 01:51:54;;;;;;;8.82;5.00;;;;;;;16.75;94.68;99770.75;5055103;28;20408;-68
2021/07/15 01:54:22;;;;;;;9.95;4.80;;;;;;;16.83;94.22;99766.91;5056367;28;20049;-68
2021/07/15 01:56:50;;;;;;;20.00;6.57;;;;;;;16.80;93.47;99767.66;5053536;28;20053;-68
2021/07/15 01:59:21;;;;;;;16.55;6.25;;;;;;;16.70;93.21;99757.81;5052711;28;20052;-68
2021/07/15 02:01:51;;;;;;;14.90;6.07;;;;;;;16.73;93.82;99753.44;5073115;28;20512;-68
2021/07/15 02:04:20;;;;;;;11.57;5.60;;;;;;;16.76;93.81;99756.34;5063909;28;20056;-68
2021/07/15 02:06:50;;;;;;;10.25;5.13;;;;;;;16.78;94.07;99753.97;5053244;28;20386;-68
2021/07/15 02:09:19;;;;;;;13.63;6.22;;;;;;;16.78;93.82;99747.53;5052647;28;20075;-68
2021/07/15 02:11:49;;;;;;;13.10;5.93;;;;;;;16.74;93.72;99744.63;5063266;28;20045;-68
2021/07/15 02:14:18;;;;;;;12.27;5.53;;;;;;;16.75;93.66;99748.25;5064110;28;20053;-68
2021/07/15 02:16:48;;;;;;;15.63;5.75;;;;;;;16.73;93.34;99739.38;5072542;28;20048;-68
2021/07/15 02:19:16;;;;;;;10.35;5.95;;;;;;;16.72;93.42;99734.97;5057752;28;20048;-68
2021/07/15 02:21:46;;;;;;;12.75;6.25;;;;;;;16.74;93.06;99736.22;5052561;28;20052;-68
2021/07/15 02:24:18;;;;;;;12.65;6.63;;;;;;;16.73;92.81;99728.13;5051358;28;20405;-68
2021/07/15 02:26:46;;;;;;;11.02;6.03;;;;;;;16.60;92.72;99722.69;5052234;28;20403;-68
2021/07/15 02:29:13;;;;;;;12.32;6.10;;;;;;;16.66;92.69;99717.56;5052093;28;20059;-68
2021/07/15 02:31:44;;;;;;;13.32;5.95;;;;;;;16.68;92.22;99723.63;5052707;28;20080;-67
2021/07/15 02:34:18;;;;;;;10.40;5.03;;;;;;;16.70;92.16;99724.06;5052235;28;20063;-68
2021/07/15 02:36:48;;;;;;;8.48;4.80;;;;;;;16.72;91.53;99729.34;5057864;28;20051;-68
2021/07/15 02:39:15;;;;;;;;;;;;;;;16.75;96.80;99737.00;5073102;28;20063;-68
2021/07/15 02:41:42;;;;;;;9.52;5.57;;;;;;;16.75;91.88;99748.25;5055518;28;20305;-68
2021/07/15 02:44:10;;;;;;;11.25;6.18;;;;;;;16.76;91.09;99759.13;5052010;28;20056;-68
2021/07/15 02:46:37;;;;;;;13.82;6.60;;;;;;;16.74;90.55;99769.16;5052381;28;20060;-68
2021/07/15 02:49:05;;;;;;;19.63;8.25;;;;;;;16.75;90.08;99777.19;5064127;28;20063;-67
2021/07/15 02:51:33;;;;;;;16.67;7.63;;;;;;;16.74;89.83;99786.03;5064900;28;20060;-67
2021/07/15 02:54:03;;;;;;;14.90;7.63;;;;;;;16.74;89.94;99786.81;5059677;28;20057;-67
2021/07/15 02:56:36;;;;;;;10.88;6.25;;;;;;;16.75;90.79;99788.44;5052535;28;20060;-68
2021/07/15 02:59:12;;;;;;;15.85;7.88;;;;;;;16.70;90.58;99787.94;5055100;28;20052;-68
2021/07/15 03:01:46;;;;;;;16.90;8.00;;;;;;;16.77;90.74;99786.06;5053647;28;20063;-68
2021/07/15 03:04:24;;;;;;;15.82;7.93;;;;;;;16.78;90.95;99801.78;5072724;28;20076;-68
2021/07/15 03:06:52;;;;;;;11.00;6.53;;;;;;;16.81;91.04;99801.03;5067109;28;20061;-68
2021/07/15 03:09:26;;;;;;;11.10;6.30;;;;;;;16.74;92.19;99803.69;5064611;28;20055;-68
2021/07/15 03:12:00;;;;;;;11.05;6.13;;;;;;;16.81;92.20;99805.84;5067363;28;20056;-68
2021/07/15 03:14:33;;;;;;;10.02;6.80;;;;;;;16.65;92.54;99811.53;5066861;28;20049;-68
2021/07/15 03:17:03;;;;;;;9.65;6.40;;;;;;;16.53;93.65;99825.78;5055756;28;20061;-68
2021/07/15 03:19:33;;;;;;;11.02;6.55;;;;;;;16.72;93.49;99822.94;5074524;28;20059;-68
2021/07/15 03:22:04;;;;;;;15.38;7.05;;;;;;;16.88;93.30;99827.69;5059910;28;20049;-68
2021/07/15 03:24:37;;;;;;;12.25;6.32;;;;;;;16.91;93.00;99830.56;5056003;28;20448;-68
2021/07/15 03:27:06;;;;;;;11.75;6.55;;;;;;;17.06;92.58;99826.00;5063030;28;20053;-68
2021/07/15 03:29:36;;;;;;;12.48;6.97;;;;;;;17.21;92.07;99827.88;5063523;28;20056;-68
2021/07/15 03:32:04;;;;;;;;;;;;;;;17.31;96.82;99831.28;5056297;28;20053;-68
2021/07/15 03:34:33;;;;;;;11.15;6.53;;;;;;;17.40;92.22;99829.81;5065726;28;20304;-68
2021/07/15 03:37:02;;;;;;;14.00;7.60;;;;;;;17.45;91.17;99829.50;5055837;28;20071;-68
2021/07/15 03:39:29;;;;;;;9.77;6.50;;;;;;;17.47;91.42;99833.94;5055659;28;20064;-68
2021/07/15 03:41:59;;;;;;;15.63;8.93;;;;;;;17.50;91.18;99821.94;5060437;28;20056;-68
2021/07/15 03:44:28;;;;;;;11.40;6.90;;;;;;;17.56;91.27;99835.31;5054501;28;20056;-68
2021/07/15 03:46:56;;;;;;;12.02;6.72;;;;;;;17.64;91.17;99830.63;5055415;28;20056;-68
2021/07/15 03:49:25;;;;;;;9.52;6.70;;;;;;;17.67;90.57;99835.50;5057520;28;20049;-68
2021/07/15 03:51:53;;;;;;;9.82;6.25;;;;;;;17.76;90.27;99829.59;5056691;28;20045;-68
2021/07/15 03:54:23;;;;;;;8.23;6.07;;;;;;;17.81;90.09;99832.09;5065478;28;20390;-68
2021/07/15 03:56:54;;;;;;;9.15;5.80;;;;;;;17.81;90.04;99838.53;5058688;28;20060;-68
2021/07/15 03:59:26;;;;;;;12.90;5.82;;;;;;;17.88;90.00;99835.03;5058793;28;20075;-68
2021/07/15 04:02:01;;;;;;;10.98;6.18;;;;;;;17.96;90.28;99833.94;5055738;28;20052;-68
2021/07/15 04:04:30;;;;;;;10.25;6.55;;;;;;;17.96;89.08;99835.97;5058807;28;20405;-68
2021/07/15 04:07:03;;;;;;;9.90;6.65;;;;;;;17.93;89.13;99833.88;5055509;28;20049;-68
2021/07/15 04:09:31;;;;;;;9.60;6.72;;;;;;;17.94;88.81;99835.53;5054851;28;20064;-68
2021/07/15 04:12:00;;;;;;;11.70;7.00;;;;;;;17.90;88.90;99843.13;5063282;28;20049;-68
2021/07/15 04:14:45;;;;;;;9.57;7.18;;;;;;;17.89;89.86;99849.94;5065501;28;20049;-68
2021/07/15 04:17:14;;;;;;;7.78;6.05;;;;;;;17.94;89.27;99856.06;5055418;28;20067;-68
2021/07/15 04:19:42;;;;;;;9.20;6.43;;;;;;;18.02;89.29;99854.16;5066087;28;20045;-68
2021/07/15 04:22:14;;;;;;;9.40;6.07;;;;;;;18.07;89.20;99853.81;5054762;28;20049;-68
2021/07/15 04:24:44;;;;;;;12.60;7.05;;;;;;;18.14;88.95;99859.59;5067062;28;20052;-68
2021/07/15 04:27:12;;;;;;;19.60;6.10;;;;;;;18.20;88.93;99863.66;5061744;28;20067;-68
2021/07/15 04:29:41;;;;;;;8.35;6.30;;;;;;;18.28;88.69;99860.97;5060760;28;20056;-68
2021/07/15 04:32:16;;;;;;;11.05;6.43;;;;;;;18.20;89.74;99858.03;5074981;28;20331;-68
2021/07/15 04:34:46;;;;;;;9.63;6.18;;;;;;;18.26;88.90;99852.88;5073124;28;20048;-68
2021/07/15 04:37:16;;;;;;;;;;;;;;;18.35;94.75;99846.94;5064357;28;20056;-68
2021/07/15 04:39:44;;;;;;;11.68;5.90;;;;;;;18.36;89.48;99846.56;5054866;28;19928;-68
2021/07/15 04:42:12;;;;;;;7.07;5.60;;;;;;;18.39;89.14;99842.16;5064976;28;20057;-68
2021/07/15 04:44:44;;;;;;;8.60;6.25;;;;;;;18.44;89.08;99834.19;5062785;28;20048;-68
2021/07/15 04:47:14;;;;;;;9.85;5.78;;;;;;;18.47;88.36;99841.06;5056548;28;20053;-67
2021/07/15 04:49:41;;;;;;;10.00;6.00;;;;;;;18.50;88.29;99850.75;5072819;28;20044;-68
2021/07/15 04:52:10;;;;;;;8.88;6.13;;;;;;;18.54;88.47;99844.00;5074690;28;20063;-68
2021/07/15 04:54:39;;;;;;;8.55;5.55;;;;;;;18.61;88.45;99843.28;5067540;28;20052;-68
2021/07/15 04:57:09;;;;;;;10.63;6.25;;;;;;;18.67;88.13;99836.91;5054276;28;20056;-68
2021/07/15 04:59:36;;;;;;;;;;;;;;;18.78;93.23;99844.66;5055211;28;20600;-68
2021/07/15 05:02:05;;;;;;;7.80;5.32;;;;;;;18.83;88.61;99847.16;5057003;28;19927;-68
2021/07/15 05:04:34;;;;;;;9.43;5.72;;;;;;;18.88;88.29;99841.19;5062721;28;21213;-68
2021/07/15 05:07:01;;;;;;;9.73;5.70;;;;;;;18.95;88.04;99841.25;5054451;28;20524;-68
2021/07/15 05:09:28;;;;;;;9.95;6.30;;;;;;;19.06;87.37;99845.00;5062597;28;21010;-68
2021/07/15 05:11:56;;;;;;;9.63;5.55;;;;;;;19.03;87.26;99851.44;5073930;28;20056;-68
2021/07/15 05:14:23;;;;;;;8.70;5.60;;;;;;;19.16;86.30;99843.50;5064265;28;20049;-68
2021/07/15 05:16:51;;;;;;;8.13;5.43;;;;;;;19.21;86.11;99845.97;5059154;28;20060;-68
2021/07/15 05:19:20;;;;;;;10.50;5.90;;;;;;;19.32;85.44;99846.06;5053489;28;20056;-68
2021/07/15 05:21:47;;;;;;;8.60;5.65;;;;;;;19.38;86.19;99841.69;5053609;28;20053;-68
2021/07/15 05:24:15;;;;;;;9.63;6.00;;;;;;;19.45;86.59;99838.91;5052663;28;20060;-68
2021/07/15 05:26:45;;;;;;;12.32;6.40;;;;;;;19.51;85.75;99835.72;5051051;28;20758;-68
2021/07/15 05:29:12;;;;;;;9.13;6.18;;;;;;;19.59;85.80;99840.22;5052135;28;20065;-68
2021/07/15 05:31:40;;;;;;;9.98;5.68;;;;;;;19.67;85.60;99844.72;5056201;28;20060;-68
2021/07/15 05:34:07;;;;;;;10.05;5.20;;;;;;;19.55;86.07;99847.84;5049903;28;21680;-56
2021/07/15 05:36:38;;;;;;;7.53;5.18;;;;;;;19.87;86.16;99843.31;5052514;28;20053;-51
2021/07/15 05:39:05;;;;;;;7.65;5.80;;;;;;;19.55;85.09;99850.69;5056940;28;20060;-55
2021/07/15 05:41:32;;;;;;;9.73;6.00;;;;;;;19.88;85.02;99855.41;5052656;28;20409;-55
2021/07/15 05:44:00;;;;;;;9.05;5.60;;;;;;;19.89;84.87;99861.91;5062720;28;20044;-54
2021/07/15 05:46:27;;;;;;;9.15;5.72;;;;;;;19.62;85.41;99859.25;5063549;28;20067;-53
2021/07/15 05:48:54;;;;;;;8.25;5.78;;;;;;;20.05;84.87;99862.38;5057077;28;20425;-68
2021/07/15 05:51:21;;;;;;;10.70;6.28;;;;;;;20.25;83.64;99858.06;5060035;28;20057;-68
2021/07/15 05:53:51;;;;;;;7.88;5.22;;;;;;;20.37;83.10;99862.59;5059624;28;20052;-68
2021/07/15 05:56:18;;;;;;;7.65;5.68;;;;;;;20.35;84.27;99869.84;5054091;28;20512;-68
2021/07/15 05:58:45;;;;;;;6.93;4.95;;;;;;;20.41;84.60;99880.41;5051128;28;20503;-68
2021/07/15 06:01:13;;;;;;;8.10;5.75;;;;;;;20.61;84.28;99880.13;5052926;28;20053;-68
2021/07/15 06:03:42;;;;;;;8.98;5.32;;;;;;;20.72;84.05;99891.47;5059559;28;20063;-68
2021/07/15 06:06:10;;;;;;;;;;;;;;;20.81;89.96;99892.75;5054028;28;20049;-68
2021/07/15 06:08:37;;;;;;;8.23;5.43;;;;;;;20.86;83.68;99891.53;5052654;28;19924;-68
2021/07/15 06:11:06;;;;;;;7.88;5.70;;;;;;;20.91;83.18;99893.97;5049463;28;20373;-68
2021/07/15 06:13:33;;;;;;;9.67;5.73;;;;;;;21.07;83.20;99896.47;5051095;28;20397;-68
2021/07/15 06:16:00;;;;;;;6.90;5.32;;;;;;;21.18;82.65;99893.66;5050249;28;20487;-69
2021/07/15 06:18:28;;;;;;;7.53;5.35;;;;;;;21.12;82.83;99890.38;5048621;28;20516;-68
2021/07/15 06:20:55;;;;;;;7.18;5.70;;;;;;;21.11;83.37;99888.78;5049548;28;20572;-68
2021/07/15 06:23:22;;;;;;;6.90;5.28;;;;;;;20.95;83.39;99889.13;5045341;28;20394;-68
2021/07/15 06:25:49;;;;;;;7.13;4.88;;;;;;;21.05;83.68;99893.22;5058273;28;20049;-68
2021/07/15 06:28:18;;;;;;;7.38;4.80;;;;;;;21.00;83.51;99910.59;5052762;28;20060;-68
2021/07/15 06:30:46;;;;;;;6.93;4.93;;;;;;;21.25;82.95;99902.97;5057218;28;20048;-68
2021/07/15 06:33:13;;;;;;;7.55;4.78;;;;;;;21.59;81.79;99911.16;5054881;28;20454;-69
2021/07/15 06:35:41;;;;;;;7.15;5.00;;;;;;;21.77;80.97;99921.69;5053206;28;22126;-69
2021/07/15 06:38:09;;;;;;;6.53;4.72;;;;;;;21.83;80.54;99928.59;5059096;28;20057;-69
2021/07/15 06:40:37;;;;;;;7.57;5.60;;;;;;;21.89;80.18;99926.97;5059968;28;20477;-68
2021/07/15 06:43:04;;;;;;;6.18;4.80;;;;;;;21.86;80.04;99930.63;5052742;28;20061;-69
2021/07/15 06:45:33;;;;;;;7.53;5.07;;;;;;;21.87;79.85;99933.03;5056705;28;20063;-69
2021/07/15 06:48:00;;;;;;;7.35;5.28;;;;;;;21.94;80.02;99939.91;5054164;28;20061;-69
2021/07/15 06:50:28;;;;;;;6.65;4.80;;;;;;;21.89;79.68;99941.94;5050284;28;20063;-69
2021/07/15 06:52:55;;;;;;;6.00;5.35;;;;;;;21.88;79.21;99942.34;5051213;28;20048;-69
2021/07/15 06:55:22;;;;;;;5.93;5.32;;;;;;;21.95;79.17;99950.06;5053872;28;20051;-69
2021/07/15 06:57:50;;;;;;;8.13;5.25;;;;;;;22.06;79.37;99943.16;5055695;28;20052;-69
2021/07/15 07:00:18;;;;;;;7.30;5.07;;;;;;;22.27;78.88;99947.22;5065233;28;20049;-69
2021/07/15 07:02:51;;;;;;;6.18;4.95;;;;;;;22.49;78.59;99945.97;5050805;28;20052;-69
2021/07/15 07:05:18;;;;;;;6.93;5.30;;;;;;;22.50;77.58;99953.25;5066072;28;20053;-69
2021/07/15 07:07:46;;;;;;;6.20;4.50;;;;;;;22.67;77.15;99947.94;5060289;28;20056;-69
2021/07/15 07:10:15;;;;;;;7.25;4.70;;;;;;;22.87;77.05;99949.09;5065450;28;20409;-69
2021/07/15 07:12:43;;;;;;;;;;;;;;;23.06;83.46;99956.38;5053428;28;20045;-69
2021/07/15 07:15:13;;;;;;;5.78;4.50;;;;;;;23.09;76.76;99952.69;5053782;28;19924;-69
2021/07/15 07:17:40;;;;;;;4.45;4.03;;;;;;;23.27;75.76;99952.59;5057148;28;20052;-69
2021/07/15 07:20:11;;;;;;;6.00;4.00;;;;;;;23.35;76.00;99959.06;5052866;28;20060;-69
2021/07/15 07:22:41;;;;;;;4.53;3.95;;;;;;;23.47;74.37;99961.41;5056612;28;20053;-70
2021/07/15 07:25:11;;;;;;;4.22;3.30;;;;;;;23.62;73.65;99962.16;5066630;28;20052;-70
2021/07/15 07:27:41;;;;;;;5.13;3.45;;;;;;;23.80;73.73;99959.19;5053483;28;20052;-70
2021/07/15 07:30:14;;;;;;;7.35;3.78;;;;;;;23.76;73.18;99964.09;5051538;28;20462;-70
2021/07/15 07:32:42;;;;;;;4.60;3.45;;;;;;;23.83;73.93;99969.75;5057025;28;20056;-69
2021/07/15 07:35:12;;;;;;;6.47;3.50;;;;;;;23.98;73.13;99967.59;5070545;28;20065;-69
2021/07/15 07:37:40;;;;;;;5.07;3.50;;;;;;;23.98;72.67;99969.63;5072387;28;20392;-69
2021/07/15 07:40:12;;;;;;;4.20;3.45;;;;;;;24.06;72.17;99968.34;5059326;28;20501;-70
2021/07/15 07:42:40;;;;;;;5.15;3.65;;;;;;;24.17;72.08;99965.41;5059030;28;20488;-70
2021/07/15 07:45:09;;;;;;;6.03;4.35;;;;;;;24.37;71.23;99962.78;5059686;28;20059;-68
2021/07/15 07:47:36;;;;;;;5.15;4.25;;;;;;;24.50;70.52;99966.75;5062714;28;20941;-68
2021/07/15 07:50:05;;;;;;;5.68;4.05;;;;;;;24.39;70.21;99966.81;5055383;28;20393;-68
2021/07/15 07:52:34;;;;;;;3.90;3.20;;;;;;;24.63;70.51;99965.00;5050533;28;20500;-68
2021/07/15 07:55:01;;;;;;;3.95;3.08;;;;;;;24.71;69.95;99963.69;5050950;28;20413;-68
2021/07/15 07:57:33;;;;;;;5.05;3.20;;;;;;;24.76;69.22;99970.13;5057312;28;20422;-71
2021/07/15 08:00:00;;;;;;;4.18;3.05;;;;;;;24.76;68.42;99968.09;5055327;28;20051;-70
2021/07/15 08:02:28;;;;;;;4.80;3.10;;;;;;;24.88;67.61;99969.59;5054139;28;20057;-69
2021/07/15 08:04:55;;;;;;;4.70;3.05;;;;;;;24.88;67.33;99966.72;5063129;28;20498;-69
2021/07/15 08:07:23;;;;;;;3.33;3.00;;;;;;;24.98;67.03;99974.34;5071134;28;20049;-69
2021/07/15 08:09:51;;;;;;;4.47;2.85;;;;;;;25.25;65.58;99967.94;5058819;28;20057;-69
2021/07/15 08:12:19;;;;;;;2.67;2.30;;;;;;;25.40;64.79;99971.41;5054028;28;20412;-69
2021/07/15 08:14:47;;;;;;;2.33;2.13;;;;;;;25.38;63.51;99968.19;5052723;28;20052;-69
2021/07/15 08:17:15;;;;;;;3.88;2.03;;;;;;;25.47;62.83;99971.28;5053578;28;20063;-69
2021/07/15 08:19:42;;;;;;;2.05;1.73;;;;;;;25.52;62.95;99974.47;5051943;28;20053;-69
2021/07/15 08:22:10;;;;;;;3.42;2.00;;;;;;;25.54;61.92;99976.13;5051580;28;20063;-69
2021/07/15 08:24:38;;;;;;;2.83;1.70;;;;;;;25.46;61.74;99969.69;5052226;28;20045;-69
2021/07/15 08:27:06;;;;;;;2.47;1.50;;;;;;;25.50;61.37;99965.56;5055510;28;20490;-68
2021/07/15 08:29:34;;;;;;;3.55;1.70;;;;;;;25.47;60.68;99972.13;5051458;28;20049;-68
2021/07/15 08:32:01;;;;;;;3.05;1.35;;;;;;;25.65;60.64;99976.75;5052039;28;20445;-68
2021/07/15 08:34:29;;;;;;;2.65;1.10;;;;;;;25.81;58.39;99976.91;5052329;28;20064;-68
2021/07/15 08:36:56;;;;;;;2.05;1.10;;;;;;;26.05;58.07;99976.97;5051848;28;21780;-68
2021/07/15 08:39:24;;;;;;;1.98;1.10;;;;;;;25.98;57.56;99982.81;5049583;28;20420;-68
2021/07/15 08:41:51;;;;;;;3.10;1.17;;;;;;;25.82;58.53;99980.56;5052780;28;20052;-68
2021/07/15 08:44:20;;;;;;;4.15;1.10;;;;;;;25.86;57.97;99984.19;5050317;28;20072;-68
2021/07/15 08:46:49;;;;;;;1.80;1.20;;;;;;;25.81;58.89;99988.34;5060138;28;20060;-70
2021/07/15 08:49:18;;;;;;;1.70;1.02;;;;;;;25.94;58.78;99987.78;5049812;28;20056;-68
2021/07/15 08:51:46;;;;;;;1.63;1.25;;;;;;;25.95;58.88;99995.88;5050314;28;20492;-70
2021/07/15 08:54:15;;;;;;;2.13;1.52;;;;;;;25.89;58.11;99992.72;5050947;28;20440;-68
2021/07/15 08:56:43;;;;;;;1.50;0.90;;;;;;;26.03;57.24;99991.66;5050446;28;20108;-69
2021/07/15 08:59:14;;;;;;;1.60;1.00;;;;;;;26.16;56.67;99997.56;5054231;28;20067;-68
2021/07/15 09:01:45;;;;;;;1.48;1.00;;;;;;;26.24;56.17;99993.34;5053784;28;20053;-69
2021/07/15 09:04:13;;;;;;;2.58;1.00;;;;;;;26.14;56.41;100002.91;5049767;28;20954;-70
2021/07/15 09:06:41;;;;;;;2.08;1.00;;;;;;;26.85;54.72;99991.47;5053134;28;20485;-68
2021/07/15 09:09:10;;;;;;;1.83;1.00;;;;;;;27.74;51.62;99981.00;5050416;28;20053;-68
2021/07/15 09:11:38;;;;;;;1.60;1.00;;;;;;;28.49;50.55;99983.28;5048747;28;20053;-68
2021/07/15 09:14:13;;;;;;;1.65;1.00;;;;;;;29.64;50.75;99991.50;5049980;28;20068;-69
2021/07/15 09:16:48;;;;;;;1.48;0.90;;;;;;;30.18;47.41;99978.31;5052429;28;20049;-68
2021/07/15 09:19:17;;;;;;;1.95;0.70;;;;;;;30.39;43.97;99985.41;5050028;28;20045;-68
2021/07/15 09:21:45;;;;;;;1.75;0.75;;;;;;;30.85;42.83;99986.63;5050272;28;20063;-68
2021/07/15 09:24:31;;;;;;;1.57;0.60;;;;;;;30.85;45.05;99985.81;5050186;28;20061;-68
2021/07/15 09:27:00;;;;;;;2.00;0.77;;;;;;;31.29;41.75;99985.84;5048515;28;20500;-68
2021/07/15 09:29:27;;;;;;;1.05;0.70;;;;;;;32.61;38.31;99982.56;5049316;28;20049;-68
2021/07/15 09:31:57;;;;;;;1.73;0.55;;;;;;;32.71;37.46;99984.16;5052850;28;20068;-68
2021/07/15 09:34:26;;;;;;;1.80;0.80;;;;;;;32.73;37.49;99992.34;5052735;28;20049;-68
2021/07/15 09:36:54;;;;;;;;;;;;;;;32.46;43.62;99991.00;5050159;28;20072;-68
2021/07/15 09:39:23;;;;;;;1.00;0.53;;;;;;;32.46;38.34;99988.13;5048650;28;19920;-68
2021/07/15 09:42:14;;;;;;;2.10;0.70;;;;;;;32.66;41.41;99987.69;5052340;28;20045;-68
2021/07/15 09:44:43;;;;;;;1.83;1.17;;;;;;;33.06;36.68;99989.63;5050579;28;20053;-68
2021/07/15 09:47:33;;;;;;;1.60;1.10;;;;;;;34.31;33.93;99987.81;5051807;28;20053;-68
2021/07/15 09:50:03;;;;;;;2.17;1.00;;;;;;;35.20;33.19;99978.63;5053560;28;20509;-66
2021/07/15 09:52:30;;;;;;;3.05;1.20;;;;;;;35.23;33.73;99992.09;5052159;28;20393;-66
2021/07/15 09:55:21;;;;;;;2.53;1.30;;;;;;;34.87;33.80;99994.03;5049987;28;20058;-67
2021/07/15 09:58:00;;;;;;;1.48;1.10;;;;;;;35.01;33.03;100009.81;5047353;28;20061;-67
2021/07/15 10:00:32;;;;;;;3.03;1.08;;;;;;;34.06;35.44;100003.50;5049190;28;20048;-67
2021/07/15 10:03:01;;;;;;;2.40;0.90;;;;;;;34.51;34.38;100011.13;5051070;28;20519;-67
2021/07/15 10:05:28;;;;;;;;;;;;;;;34.62;44.13;100010.56;5048799;28;20056;-67
2021/07/15 10:08:03;;;;;;;2.60;0.77;;;;;;;34.30;34.14;100006.47;5049817;28;19935;-67
2021/07/15 10:10:31;;;;;;;1.55;1.45;;;;;;;34.86;33.02;100016.38;5051441;28;20048;-67
2021/07/15 10:13:12;;;;;;;2.13;1.00;;;;;;;36.19;33.01;100003.25;5049111;28;20049;-67
2021/07/15 10:15:40;;;;;;;2.10;0.85;;;;;;;35.17;32.94;100000.69;5056429;28;20040;-67
2021/07/15 10:18:09;;;;;;;1.50;0.90;;;;;;;34.99;31.88;100001.63;5050814;28;20049;-67
2021/07/15 10:20:36;;;;;;;1.95;0.90;;;;;;;33.90;33.38;100007.59;5056578;28;20502;-67
2021/07/15 10:23:04;;;;;;;1.15;0.80;;;;;;;33.62;35.64;99998.22;5061634;28;20413;-67
2021/07/15 10:25:32;;;;;;;1.30;0.90;;;;;;;33.46;35.32;99997.28;5051655;28;20053;-67
2021/07/15 10:28:00;;;;;;;0.88;0.65;;;;;;;33.21;35.08;100010.00;5054714;28;20493;-66
2021/07/15 10:30:29;;;;;;;1.10;0.80;;;;;;;32.51;35.44;100010.56;5066844;28;20442;-68
2021/07/15 10:32:56;;;;;;;1.20;0.77;;;;;;;32.15;36.24;100008.41;5061634;28;20401;-67
2021/07/15 10:35:25;;;;;;;2.17;0.90;;;;;;;31.58;37.93;100002.03;5053818;28;20045;-67
2021/07/15 10:37:56;;;;;;;1.45;0.77;;;;;;;31.27;38.05;100017.19;5051004;28;20049;-67
2021/07/15 10:40:24;;;;;;;1.30;0.80;;;;;;;31.04;38.38;100021.34;5050459;28;20060;-67
2021/07/15 10:42:54;;;;;;;1.63;0.90;;;;;;;30.74;38.43;100018.66;5051398;28;20044;-67
2021/07/15 10:45:23;;;;;;;1.33;0.88;;;;;;;30.85;39.10;100018.25;5057292;28;20059;-67
2021/07/15 10:47:55;;;;;;;1.95;0.80;;;;;;;30.81;40.14;100028.28;5050736;28;20045;-67
2021/07/15 10:50:22;;;;;;;1.10;0.70;;;;;;;30.51;38.94;100028.50;5050951;28;20056;-67
2021/07/15 10:52:51;;;;;;;1.42;0.80;;;;;;;30.05;40.93;100032.88;5053264;28;20532;-67
2021/07/15 10:55:19;;;;;;;2.63;0.90;;;;;;;29.97;40.30;100031.50;5054735;28;20066;-67
2021/07/15 10:57:50;;;;;;;1.73;0.93;;;;;;;29.73;40.92;100040.44;5051197;28;20044;-67
2021/07/15 11:00:22;;;;;;;1.33;0.70;;;;;;;29.42;39.23;100029.47;5052293;28;20524;-67
2021/07/15 11:03:08;;;;;;;1.55;0.95;;;;;;;28.82;42.49;100038.50;5060651;28;20049;-67
2021/07/15 11:05:46;;;;;;;1.10;0.70;;;;;;;28.53;45.50;100041.31;5061889;28;20401;-67
2021/07/15 11:08:16;;;;;;;1.25;0.80;;;;;;;28.47;43.46;100037.34;5053138;28;20049;-67
2021/07/15 11:10:45;;;;;;;1.50;1.10;;;;;;;28.21;44.76;100037.19;5059291;28;20085;-67
2021/07/15 11:13:15;;;;;;;;;;;;;;;28.31;49.29;100044.69;5054345;28;20057;-67
2021/07/15 11:15:47;;;;;;;2.08;1.00;;;;;;;28.44;45.88;100041.91;5062825;28;19932;-67
2021/07/15 11:18:48;;;;;;;7.13;1.55;;;;;;;28.58;47.43;100051.41;5054992;28;20502;-67
2021/07/15 11:21:32;;;;;;;1.83;0.82;;;;;;;28.69;44.81;100049.91;5056526;28;20061;-67
2021/07/15 11:24:52;;;;;;;1.40;0.88;;;;;;;28.77;46.76;100053.38;5059545;28;20056;-67
2021/07/15 11:27:42;;;;;;;1.30;0.82;;;;;;;28.93;45.78;100061.94;5057249;28;20053;-67
2021/07/15 11:30:27;;;;;;;1.63;1.10;;;;;;;29.07;44.88;100063.63;5062119;28;20061;-67
2021/07/15 11:32:56;;;;;;;1.42;0.88;;;;;;;29.03;44.56;100068.66;5059228;28;20056;-67
2021/07/15 11:35:30;;;;;;;3.47;0.90;;;;;;;28.96;44.99;100068.84;5051833;28;20053;-67
2021/07/15 11:38:09;;;;;;;2.63;1.00;;;;;;;28.85;45.57;100072.00;5064547;28;20051;-67
2021/07/15 11:40:48;;;;;;;2.25;1.10;;;;;;;28.79;44.08;100068.09;5074606;28;20060;-67
2021/07/15 11:43:30;;;;;;;1.90;1.02;;;;;;;28.77;44.13;100075.50;5063632;28;20386;-67
2021/07/15 11:46:21;;;;;;;3.53;1.33;;;;;;;28.88;46.46;100067.44;5055326;28;20052;-67